createdAt,value
2019-03-31T00:02:24.846Z,8.28
2019-03-31T00:04:57.486Z,8.25
2019-03-31T00:07:31.441Z,8.19
2019-03-31T00:10:03.863Z,8.17
2019-03-31T00:12:36.255Z,8.15
2019-03-31T00:15:08.655Z,8.15
2019-03-31T00:17:40.987Z,8.11
2019-03-31T00:20:13.232Z,8.03
2019-03-31T00:22:45.475Z,7.96
2019-03-31T00:25:17.720Z,7.97
2019-03-31T00:27:49.986Z,7.98
2019-03-31T00:30:22.251Z,8.00
2019-03-31T00:32:54.782Z,8.02
2019-03-31T00:35:27.027Z,8.01
2019-03-31T00:37:59.186Z,8.01
2019-03-31T00:40:31.454Z,8.02
2019-03-31T00:43:03.699Z,8.00
2019-03-31T00:45:35.904Z,8.00
2019-03-31T00:48:08.123Z,7.94
2019-03-31T00:50:40.356Z,7.90
2019-03-31T00:53:12.510Z,7.86
2019-03-31T00:55:44.750Z,7.76
2019-03-31T00:58:17.008Z,7.66
2019-03-31T01:01:06.436Z,7.57
2019-03-31T01:03:40.278Z,7.47
2019-03-31T01:06:12.574Z,7.48
2019-03-31T01:08:44.913Z,7.47
2019-03-31T01:11:19.872Z,7.46
2019-03-31T01:13:52.093Z,7.39
2019-03-31T01:16:24.373Z,7.35
2019-03-31T01:18:56.594Z,7.38
2019-03-31T01:21:28.987Z,7.35
2019-03-31T01:24:01.463Z,7.28
2019-03-31T01:26:33.749Z,7.32
2019-03-31T01:29:06.281Z,7.32
2019-03-31T01:31:49.720Z,7.27
2019-03-31T01:34:13.029Z,7.26
2019-03-31T01:36:45.253Z,7.26
2019-03-31T01:39:17.486Z,7.28
2019-03-31T01:41:49.720Z,7.25
2019-03-31T01:44:21.895Z,7.23
2019-03-31T01:46:54.109Z,7.17
2019-03-31T01:49:26.343Z,7.18
2019-03-31T01:51:58.625Z,7.03
2019-03-31T01:54:30.832Z,7.08
2019-03-31T01:57:02.994Z,7.12
2019-03-31T01:59:35.161Z,7.07
2019-03-31T02:02:09.021Z,7.01
2019-03-31T02:04:41.260Z,6.95
2019-03-31T02:07:13.745Z,6.92
2019-03-31T02:09:45.973Z,6.93
2019-03-31T02:12:19.374Z,6.88
2019-03-31T02:14:51.578Z,6.98
2019-03-31T02:17:23.810Z,6.92
2019-03-31T02:19:56.030Z,6.94
2019-03-31T02:22:28.503Z,6.99
2019-03-31T02:25:00.679Z,7.02
2019-03-31T02:27:32.883Z,7.07
2019-03-31T02:30:05.134Z,7.12
2019-03-31T02:32:37.445Z,7.03
2019-03-31T02:35:09.676Z,6.96
2019-03-31T02:37:41.839Z,6.78
2019-03-31T02:40:14.002Z,6.63
2019-03-31T02:42:46.238Z,6.68
2019-03-31T02:45:18.537Z,6.68
2019-03-31T02:47:50.683Z,6.75
2019-03-31T02:50:47.216Z,6.83
2019-03-31T02:53:20.078Z,6.93
2019-03-31T02:55:52.234Z,6.99
2019-03-31T02:58:24.839Z,7.03
2019-03-31T03:00:57.181Z,7.14
2019-03-31T03:03:29.342Z,7.21
2019-03-31T03:06:01.721Z,7.32
2019-03-31T03:08:33.928Z,7.37
2019-03-31T03:11:06.414Z,7.20
2019-03-31T03:13:38.647Z,7.27
2019-03-31T03:16:29.689Z,7.28
2019-03-31T03:19:01.825Z,7.32
2019-03-31T03:21:34.046Z,7.44
2019-03-31T03:24:06.256Z,7.51
2019-03-31T03:26:38.398Z,7.61
2019-03-31T03:29:10.556Z,7.73
2019-03-31T03:31:42.700Z,7.83
2019-03-31T03:34:14.902Z,7.78
2019-03-31T03:36:47.032Z,7.78
2019-03-31T03:39:19.176Z,7.86
2019-03-31T03:41:51.332Z,7.88
2019-03-31T03:44:23.479Z,7.88
2019-03-31T03:46:55.953Z,7.84
2019-03-31T03:49:28.427Z,7.87
2019-03-31T03:52:00.603Z,7.91
2019-03-31T03:54:32.828Z,7.95
2019-03-31T03:57:04.966Z,8.06
2019-03-31T03:59:37.200Z,8.10
2019-03-31T04:02:09.340Z,7.96
2019-03-31T04:04:41.543Z,7.88
2019-03-31T04:07:13.673Z,7.98
2019-03-31T04:09:45.810Z,8.02
2019-03-31T04:12:17.947Z,8.08
2019-03-31T04:14:50.101Z,8.20
2019-03-31T04:17:22.269Z,8.20
2019-03-31T04:19:54.848Z,8.23
2019-03-31T04:22:27.089Z,8.28
2019-03-31T04:24:59.227Z,8.19
2019-03-31T04:27:31.499Z,8.31
2019-03-31T04:30:03.633Z,8.38
2019-03-31T04:32:38.746Z,8.39
2019-03-31T04:35:09.768Z,8.34
2019-03-31T04:37:41.898Z,8.30
2019-03-31T04:40:14.055Z,8.31
2019-03-31T04:42:46.183Z,8.38
2019-03-31T04:45:18.413Z,8.44
2019-03-31T04:47:50.579Z,8.45
2019-03-31T04:50:23.354Z,8.51
2019-03-31T04:52:56.787Z,8.58
2019-03-31T04:55:29.111Z,8.56
2019-03-31T04:58:01.496Z,8.56
2019-03-31T05:00:33.762Z,8.59
2019-03-31T05:03:05.981Z,8.63
2019-03-31T05:05:38.128Z,8.72
2019-03-31T05:08:10.345Z,8.79
2019-03-31T05:10:42.575Z,8.87
2019-03-31T05:13:14.731Z,8.97
2019-03-31T05:15:46.858Z,9.07
2019-03-31T05:18:19.085Z,9.12
2019-03-31T05:20:51.225Z,9.18
2019-03-31T05:23:23.374Z,9.10
2019-03-31T05:25:55.659Z,9.15
2019-03-31T05:28:27.832Z,9.20
2019-03-31T05:30:59.985Z,9.26
2019-03-31T05:33:32.227Z,9.31
2019-03-31T05:36:04.392Z,9.38
2019-03-31T05:38:36.536Z,9.40
2019-03-31T05:41:08.668Z,9.40
2019-03-31T05:43:40.824Z,9.41
2019-03-31T05:46:12.961Z,9.42
2019-03-31T05:48:45.114Z,9.49
2019-03-31T05:51:17.365Z,9.49
2019-03-31T05:53:49.526Z,9.56
2019-03-31T05:56:21.673Z,9.60
2019-03-31T05:58:54.858Z,9.67
2019-03-31T06:01:27.000Z,9.71
2019-03-31T06:03:59.163Z,9.78
2019-03-31T06:06:31.499Z,9.86
2019-03-31T06:09:05.387Z,9.93
2019-03-31T06:11:37.541Z,9.95
2019-03-31T06:14:09.683Z,9.99
2019-03-31T06:16:41.852Z,9.94
2019-03-31T06:19:15.007Z,9.95
2019-03-31T06:21:47.166Z,9.98
2019-03-31T06:24:19.393Z,10.05
2019-03-31T06:26:51.532Z,10.08
2019-03-31T06:29:23.686Z,10.18
2019-03-31T06:31:56.110Z,10.26
2019-03-31T06:34:28.537Z,10.35
2019-03-31T06:37:00.728Z,10.43
2019-03-31T06:39:34.336Z,10.45
2019-03-31T06:42:06.686Z,10.53
2019-03-31T06:44:39.975Z,10.56
2019-03-31T06:47:12.227Z,10.64
2019-03-31T06:49:44.381Z,10.73
2019-03-31T06:52:16.698Z,10.70
2019-03-31T06:54:48.928Z,10.76
2019-03-31T06:57:21.080Z,10.87
2019-03-31T06:59:53.327Z,10.92
2019-03-31T07:02:26.060Z,10.83
2019-03-31T07:05:01.369Z,10.83
2019-03-31T07:07:32.585Z,10.80
2019-03-31T07:10:05.312Z,10.79
2019-03-31T07:12:37.906Z,10.91
2019-03-31T07:15:11.133Z,10.97
2019-03-31T07:17:43.345Z,10.87
2019-03-31T07:20:15.498Z,10.84
2019-03-31T07:22:47.738Z,10.79
2019-03-31T07:25:19.905Z,10.75
2019-03-31T07:27:52.065Z,10.74
2019-03-31T07:30:28.759Z,10.72
2019-03-31T07:33:01.800Z,10.76
2019-03-31T07:35:34.285Z,10.83
2019-03-31T07:38:06.830Z,10.83
2019-03-31T07:40:39.090Z,10.82
2019-03-31T07:43:11.301Z,10.75
2019-03-31T07:45:44.671Z,10.90
2019-03-31T07:48:16.931Z,10.97
2019-03-31T07:50:49.085Z,11.01
2019-03-31T07:53:21.299Z,11.03
2019-03-31T07:55:54.014Z,11.09
2019-03-31T07:58:27.089Z,11.18
2019-03-31T08:00:59.791Z,11.35
2019-03-31T08:03:32.873Z,11.47
2019-03-31T08:06:05.507Z,11.64
2019-03-31T08:08:37.733Z,11.68
2019-03-31T08:11:10.498Z,11.65
2019-03-31T08:13:42.982Z,11.72
2019-03-31T08:16:15.259Z,11.74
2019-03-31T08:18:47.441Z,11.87
2019-03-31T08:21:19.785Z,11.89
2019-03-31T08:23:52.047Z,11.93
2019-03-31T08:26:24.344Z,11.93
2019-03-31T08:28:58.579Z,12.02
2019-03-31T08:31:30.843Z,12.10
2019-03-31T08:34:03.089Z,12.04
2019-03-31T08:36:35.530Z,12.22
2019-03-31T08:39:09.155Z,12.17
2019-03-31T08:41:41.314Z,12.12
2019-03-31T08:44:13.518Z,12.30
2019-03-31T08:46:45.747Z,12.36
2019-03-31T08:49:17.902Z,12.37
2019-03-31T08:51:50.148Z,12.30
2019-03-31T08:54:22.309Z,12.26
2019-03-31T08:56:54.480Z,12.30
2019-03-31T08:59:26.626Z,12.31
2019-03-31T09:01:58.935Z,12.50
2019-03-31T09:04:31.169Z,12.59
2019-03-31T09:07:03.309Z,12.77
2019-03-31T09:09:35.528Z,12.74
2019-03-31T09:12:07.744Z,12.76
2019-03-31T09:14:39.910Z,12.63
2019-03-31T09:17:12.145Z,12.58
2019-03-31T09:19:45.275Z,12.50
2019-03-31T09:22:17.514Z,12.34
2019-03-31T09:24:49.669Z,12.10
2019-03-31T09:27:21.908Z,11.87
2019-03-31T09:29:54.627Z,12.03
2019-03-31T09:32:26.793Z,12.09
2019-03-31T09:34:59.261Z,11.90
2019-03-31T09:37:31.730Z,11.88
2019-03-31T09:40:04.617Z,12.01
2019-03-31T09:42:36.949Z,12.04
2019-03-31T09:45:10.012Z,12.03
2019-03-31T09:47:43.969Z,11.91
2019-03-31T09:50:17.501Z,11.85
2019-03-31T09:52:50.504Z,12.15
2019-03-31T09:55:23.416Z,12.18
2019-03-31T09:57:56.488Z,11.87
2019-03-31T10:00:51.139Z,12.18
2019-03-31T10:03:23.423Z,12.27
2019-03-31T10:06:10.012Z,12.52
2019-03-31T10:08:31.022Z,12.51
2019-03-31T10:11:03.247Z,12.27
2019-03-31T10:13:36.190Z,12.08
2019-03-31T10:16:08.636Z,12.00
2019-03-31T10:18:40.830Z,12.20
2019-03-31T10:21:14.296Z,12.68
2019-03-31T10:23:46.703Z,13.01
2019-03-31T10:26:31.167Z,13.17
2019-03-31T10:28:55.329Z,13.48
2019-03-31T10:31:27.733Z,13.44
2019-03-31T10:33:59.958Z,13.09
2019-03-31T10:36:43.798Z,12.81
2019-03-31T10:39:08.417Z,12.62
2019-03-31T10:41:40.827Z,12.33
2019-03-31T10:44:14.314Z,12.97
2019-03-31T10:46:47.286Z,12.75
2019-03-31T10:49:23.020Z,12.79
2019-03-31T10:51:55.819Z,12.76
2019-03-31T10:54:28.783Z,12.53
2019-03-31T10:57:01.474Z,12.75
2019-03-31T10:59:33.757Z,13.08
2019-03-31T11:02:05.964Z,13.37
2019-03-31T11:04:39.272Z,13.35
2019-03-31T11:07:13.071Z,13.33
2019-03-31T11:09:50.413Z,12.90
2019-03-31T11:12:23.877Z,12.73
2019-03-31T11:14:57.417Z,12.65
2019-03-31T11:17:32.064Z,12.60
2019-03-31T11:20:08.927Z,12.70
2019-03-31T11:22:51.846Z,12.65
2019-03-31T11:25:28.941Z,12.52
2019-03-31T11:28:00.118Z,12.42
2019-03-31T11:30:33.447Z,12.42
2019-03-31T11:33:07.693Z,12.47
2019-03-31T11:35:41.512Z,12.44
2019-03-31T11:38:14.004Z,12.55
2019-03-31T11:40:46.231Z,12.51
2019-03-31T11:43:18.461Z,12.41
2019-03-31T11:45:51.093Z,12.58
2019-03-31T11:48:23.588Z,12.49
2019-03-31T11:50:56.342Z,12.51
2019-03-31T11:53:28.913Z,12.37
2019-03-31T11:56:05.918Z,12.24
2019-03-31T11:58:38.486Z,12.31
2019-03-31T12:01:10.737Z,12.22
2019-03-31T12:03:43.305Z,12.37
2019-03-31T12:06:16.349Z,12.48
2019-03-31T12:08:49.347Z,12.59
2019-03-31T12:11:21.917Z,12.49
2019-03-31T12:13:56.838Z,12.49
2019-03-31T12:16:29.017Z,12.54
2019-03-31T12:19:01.353Z,12.38
2019-03-31T12:21:33.607Z,12.13
2019-03-31T12:24:05.943Z,12.08
2019-03-31T12:26:38.118Z,12.12
2019-03-31T12:29:10.346Z,11.99
2019-03-31T12:31:42.516Z,12.09
2019-03-31T12:34:14.655Z,12.12
2019-03-31T12:36:46.955Z,12.30
2019-03-31T12:39:19.107Z,12.58
2019-03-31T12:41:51.307Z,12.79
2019-03-31T12:44:25.064Z,12.69
2019-03-31T12:46:57.804Z,12.56
2019-03-31T12:49:30.992Z,12.08
2019-03-31T12:52:03.147Z,11.93
2019-03-31T12:54:35.309Z,11.78
2019-03-31T12:57:07.518Z,11.91
2019-03-31T12:59:40.040Z,11.75
2019-03-31T13:02:12.210Z,11.91
2019-03-31T13:04:44.505Z,11.50
2019-03-31T13:07:16.668Z,11.35
2019-03-31T13:09:48.822Z,11.43
2019-03-31T13:12:21.131Z,11.35
2019-03-31T13:14:53.266Z,11.35
2019-03-31T13:17:25.427Z,11.34
2019-03-31T13:19:57.805Z,11.35
2019-03-31T13:22:30.412Z,11.47
2019-03-31T13:25:02.996Z,11.65
2019-03-31T13:27:35.197Z,11.85
2019-03-31T13:30:07.535Z,12.04
2019-03-31T13:32:39.794Z,11.78
2019-03-31T13:35:12.009Z,11.84
2019-03-31T13:37:44.183Z,11.82
2019-03-31T13:40:16.345Z,11.90
2019-03-31T13:42:48.554Z,11.90
2019-03-31T13:45:20.770Z,11.84
2019-03-31T13:47:53.000Z,11.88
2019-03-31T13:50:25.160Z,11.64
2019-03-31T13:52:57.484Z,11.77
2019-03-31T13:55:29.808Z,11.84
2019-03-31T13:58:03.347Z,11.73
2019-03-31T14:00:37.488Z,11.70
2019-03-31T14:03:10.715Z,11.64
2019-03-31T14:05:44.056Z,11.65
2019-03-31T14:08:25.514Z,11.50
2019-03-31T14:10:50.045Z,11.36
2019-03-31T14:13:22.681Z,11.11
2019-03-31T14:15:54.844Z,11.17
2019-03-31T14:18:27.250Z,11.23
2019-03-31T14:20:59.384Z,11.26
2019-03-31T14:23:31.639Z,11.20
2019-03-31T14:26:03.890Z,11.09
2019-03-31T14:28:36.039Z,10.98
2019-03-31T14:31:08.205Z,11.07
2019-03-31T14:33:40.359Z,11.16
2019-03-31T14:36:12.500Z,11.41
2019-03-31T14:38:44.710Z,11.68
2019-03-31T14:41:17.848Z,11.86
2019-03-31T14:43:50.283Z,12.05
2019-03-31T14:46:22.607Z,12.20
2019-03-31T14:48:54.842Z,12.33
2019-03-31T14:51:27.261Z,12.41
2019-03-31T14:53:59.496Z,12.60
2019-03-31T14:56:31.736Z,12.50
2019-03-31T14:59:04.034Z,12.55
2019-03-31T15:01:37.259Z,12.84
2019-03-31T15:04:09.398Z,12.97
2019-03-31T15:06:41.614Z,13.02
2019-03-31T15:09:13.764Z,12.95
2019-03-31T15:11:45.899Z,13.19
2019-03-31T15:14:18.128Z,13.14
2019-03-31T15:16:50.362Z,13.01
2019-03-31T15:19:22.515Z,12.87
2019-03-31T15:21:54.668Z,13.06
2019-03-31T15:24:27.263Z,12.70
2019-03-31T15:26:59.421Z,12.47
2019-03-31T15:29:31.835Z,12.23
2019-03-31T15:32:03.997Z,12.03
2019-03-31T15:34:36.232Z,12.51
2019-03-31T15:37:08.369Z,13.14
2019-03-31T15:39:40.533Z,13.96
2019-03-31T15:42:12.772Z,14.92
2019-03-31T15:44:45.001Z,15.55
2019-03-31T15:47:18.298Z,16.28
2019-03-31T15:49:50.444Z,16.21
2019-03-31T15:52:22.752Z,15.19
2019-03-31T15:54:55.388Z,15.34
2019-03-31T15:57:27.748Z,15.58
2019-03-31T15:59:59.897Z,16.20
2019-03-31T16:02:32.150Z,16.32
2019-03-31T16:05:04.542Z,16.83
2019-03-31T16:07:36.763Z,17.30
2019-03-31T16:10:08.447Z,18.23
2019-03-31T16:12:40.229Z,18.96
2019-03-31T16:15:11.920Z,19.37
2019-03-31T16:17:43.531Z,19.29
2019-03-31T16:20:15.196Z,19.67
2019-03-31T16:22:46.879Z,19.47
2019-03-31T16:25:30.204Z,19.34
2019-03-31T16:28:01.807Z,19.05
2019-03-31T16:30:34.258Z,18.86
2019-03-31T16:33:07.270Z,18.89
2019-03-31T16:35:39.113Z,18.67
2019-03-31T16:38:10.703Z,17.98
2019-03-31T16:40:42.366Z,17.43
2019-03-31T16:43:13.982Z,17.29
2019-03-31T16:45:46.112Z,16.23
2019-03-31T16:48:17.768Z,15.18
2019-03-31T16:50:49.444Z,14.37
2019-03-31T16:53:21.141Z,13.65
2019-03-31T16:55:52.727Z,13.18
2019-03-31T16:58:24.388Z,12.78
2019-03-31T17:00:55.979Z,12.43
2019-03-31T17:03:27.602Z,12.15
2019-03-31T17:05:59.395Z,11.94
2019-03-31T17:08:31.105Z,11.92
2019-03-31T17:11:05.615Z,11.58
2019-03-31T17:13:37.675Z,11.27
2019-03-31T17:16:09.364Z,11.14
2019-03-31T17:18:41.052Z,11.02
2019-03-31T17:21:12.790Z,10.86
2019-03-31T17:23:44.627Z,10.73
2019-03-31T17:26:16.349Z,10.79
2019-03-31T17:28:48.474Z,10.69
2019-03-31T17:31:20.107Z,10.57
2019-03-31T17:33:51.717Z,10.47
2019-03-31T17:36:24.298Z,10.32
2019-03-31T17:38:55.913Z,10.27
2019-03-31T17:41:27.560Z,10.28
2019-03-31T17:43:59.319Z,10.21
2019-03-31T17:46:31.097Z,10.07
2019-03-31T17:49:02.700Z,9.99
2019-03-31T17:51:34.309Z,9.90
2019-03-31T17:54:06.484Z,9.78
2019-03-31T17:56:38.288Z,9.73
2019-03-31T17:59:09.976Z,9.65
2019-03-31T18:01:41.643Z,9.55
2019-03-31T18:04:13.263Z,9.50
2019-03-31T18:06:44.956Z,9.45
2019-03-31T18:09:16.729Z,9.36
2019-03-31T18:11:49.777Z,9.19
2019-03-31T18:14:21.437Z,9.10
2019-03-31T18:16:53.044Z,8.93
2019-03-31T18:19:24.779Z,8.87
2019-03-31T18:21:56.640Z,8.86
2019-03-31T18:24:28.375Z,8.78
2019-03-31T18:27:00.271Z,8.63
2019-03-31T18:29:31.969Z,8.49
2019-03-31T18:32:03.649Z,8.45
2019-03-31T18:34:35.336Z,8.48
2019-03-31T18:37:07.020Z,8.40
2019-03-31T18:39:38.703Z,8.35
2019-03-31T18:42:10.308Z,8.36
2019-03-31T18:44:41.962Z,8.36
2019-03-31T18:47:13.748Z,8.28
2019-03-31T18:49:45.755Z,8.28
2019-03-31T18:52:17.364Z,8.27
2019-03-31T18:55:01.713Z,8.26
2019-03-31T18:57:48.751Z,8.20
2019-03-31T19:00:37.811Z,8.13
2019-03-31T19:03:28.390Z,8.17
2019-03-31T19:06:27.726Z,8.11
2019-03-31T19:09:27.462Z,8.19
2019-03-31T19:12:16.552Z,8.18
2019-03-31T19:15:14.512Z,8.09
2019-03-31T19:18:11.461Z,8.01
2019-03-31T19:21:11.491Z,7.86
2019-03-31T19:23:52.448Z,7.80
2019-03-31T19:26:52.172Z,7.80
2019-03-31T19:29:51.972Z,7.77
2019-03-31T19:32:48.644Z,7.69
2019-03-31T19:35:39.216Z,7.60
2019-03-31T19:38:32.595Z,7.51
2019-03-31T19:41:12.013Z,7.45
2019-03-31T19:44:05.118Z,7.38
2019-03-31T19:46:55.625Z,7.30
2019-03-31T19:49:50.502Z,7.31
2019-03-31T19:52:39.419Z,7.29
2019-03-31T19:55:32.187Z,7.27
2019-03-31T19:58:22.842Z,7.25
2019-03-31T20:01:12.027Z,7.26
2019-03-31T20:04:01.695Z,7.14
2019-03-31T20:06:41.011Z,7.12
2019-03-31T20:09:37.394Z,6.99
2019-03-31T20:12:31.690Z,6.96
2019-03-31T20:15:20.635Z,6.93
2019-03-31T20:18:17.060Z,6.88
2019-03-31T20:21:07.224Z,6.88
2019-03-31T20:24:07.005Z,6.92
2019-03-31T20:26:55.862Z,6.84
2019-03-31T20:29:40.698Z,6.81
2019-03-31T20:32:32.667Z,6.78
2019-03-31T20:35:26.286Z,6.73
2019-03-31T20:38:16.282Z,6.65
2019-03-31T20:40:55.399Z,6.65
2019-03-31T20:43:48.746Z,6.60
2019-03-31T20:46:20.499Z,6.55
2019-03-31T20:48:52.624Z,6.54
2019-03-31T20:51:24.313Z,6.52
2019-03-31T20:53:56.654Z,6.48
2019-03-31T20:56:29.072Z,6.51
2019-03-31T20:59:01.768Z,6.50
2019-03-31T21:01:33.546Z,6.38
2019-03-31T21:04:12.973Z,6.33
2019-03-31T21:06:46.883Z,6.31
2019-03-31T21:09:18.491Z,6.20
2019-03-31T21:11:51.519Z,6.21
2019-03-31T21:14:23.595Z,6.19
2019-03-31T21:16:55.293Z,6.12
2019-03-31T21:19:27.228Z,6.11
2019-03-31T21:21:58.868Z,6.10
2019-03-31T21:24:30.538Z,6.01
2019-03-31T21:27:02.125Z,6.03
2019-03-31T21:29:33.705Z,6.05
2019-03-31T21:32:05.405Z,5.99
2019-03-31T21:34:37.012Z,6.01
2019-03-31T21:37:08.615Z,6.05
2019-03-31T21:39:40.207Z,6.02
2019-03-31T21:42:11.875Z,6.04
2019-03-31T21:44:43.566Z,6.05
2019-03-31T21:47:15.161Z,6.02
2019-03-31T21:49:47.674Z,5.93
2019-03-31T21:52:19.343Z,5.93
2019-03-31T21:54:50.947Z,5.95
2019-03-31T21:57:22.611Z,5.92
2019-03-31T21:59:54.197Z,5.90
2019-03-31T22:02:25.779Z,5.81
2019-03-31T22:04:57.622Z,5.86
2019-03-31T22:07:29.397Z,5.87
2019-03-31T22:10:01.214Z,5.75
2019-03-31T22:12:33.155Z,5.66
2019-03-31T22:15:05.158Z,5.48
2019-03-31T22:17:36.822Z,5.53
2019-03-31T22:20:08.540Z,5.49
2019-03-31T22:22:40.346Z,5.49
2019-03-31T22:25:12.033Z,5.44
2019-03-31T22:27:43.692Z,5.45
2019-03-31T22:30:15.382Z,5.37
2019-03-31T22:32:47.090Z,5.38
2019-03-31T22:35:18.756Z,5.16
2019-03-31T22:37:50.447Z,5.18
2019-03-31T22:40:22.254Z,5.14
2019-03-31T22:42:53.922Z,5.10
2019-03-31T22:45:25.605Z,5.03
2019-03-31T22:47:57.517Z,5.01
2019-03-31T22:50:29.184Z,4.86
2019-03-31T22:53:00.898Z,4.79
2019-03-31T22:55:32.491Z,4.79
2019-03-31T22:58:04.268Z,4.74
2019-03-31T23:00:35.877Z,4.61
2019-03-31T23:03:09.145Z,4.56
2019-03-31T23:05:40.844Z,4.52
2019-03-31T23:08:12.512Z,4.54
2019-03-31T23:10:44.172Z,4.43
2019-03-31T23:13:15.814Z,4.39
2019-03-31T23:15:47.413Z,4.33
2019-03-31T23:18:19.096Z,4.19
2019-03-31T23:20:50.862Z,4.08
2019-03-31T23:23:22.506Z,4.06
2019-03-31T23:25:54.134Z,3.94
2019-03-31T23:28:25.726Z,4.02
2019-03-31T23:30:57.560Z,3.88
2019-03-31T23:33:29.223Z,3.83
2019-03-31T23:36:00.889Z,3.76
2019-03-31T23:38:32.766Z,3.68
2019-03-31T23:41:04.448Z,3.59
2019-03-31T23:43:36.144Z,3.51
2019-03-31T23:46:07.754Z,3.62
2019-03-31T23:48:39.347Z,3.57
2019-03-31T23:51:10.953Z,3.49
2019-03-31T23:53:42.551Z,3.29
2019-03-31T23:56:14.236Z,3.30
2019-03-31T23:58:46.806Z,3.21
